Adam Shaw

Recruteur - Nottingham Forest
20 Févr 2028
Dimanche
Processus

Personnalité

Adaptabilité (2) Ambition (15) Controverse (16) Loyauté (14) Pression (17) Professionnalisme (1) Sportivité (11) Tempérament (12)

Profil

Style d'entraînement Démocratique
Diplôme Continental A
Détermination 6
Gestion des joueurs 6
Motivation 7
Discipline 8
Satisfaction professionnelle
100%
Fatigue
0%
Rôle Recruteur
Salaire 49.0K p/s
Contrat 14.03.2029

Performance

Comportement Bon
Efficacité de l'entraînement
41%
Développement des joueurs
50%
Prévention des blessures
45%
Mise en place tactique
70%

Événements récents

A participé à une réunion de recrutement maintenant
A participé à une réunion de recrutement maintenant
A recommandé une cible de transfert maintenant
A recommandé une cible de transfert maintenant
A recommandé une cible de transfert maintenant
A recommandé une cible de transfert 7j
A participé à une réunion de recrutement 7j
A recommandé une cible de transfert 7j

Suivi en cours

189
Joueur Club Statut Capacité Confiance Observé Dernière observation Dernier vote
Jason Knight Bristol City Perdu 137 / 138 76% 1 31.01.2028 -
Raúl Rangel Leon Actif 132 / 132 66% 1 24.01.2028 Approuver
Ryan Kavuma-McQueen Accrington Stanley Négociation 120 / 133 40% 8 11.01.2028 -
Josh Nichols Tranmere Rovers Actif 127 / 121 40% 4 11.01.2028 -
Christos Mouzakitis Hull City Actif 138 / 146 40% 9 10.01.2028 -
Zak Lovelace Crewe Alexandra Actif 113 / 113 40% 2 10.01.2028 -
Mao Hosoya Everton Négociation 134 / 135 67% 1 01.01.2028 -
Jofre Torrents Ajax Actif 127 / 135 40% 3 31.12.2027 -
Myles Lewis-Skelly Birmingham Actif 151 / 163 40% 11 31.12.2027 -
Seb Ferdinand Chesterfield Actif 119 / 123 40% 6 30.12.2027 -
David Valencia Alianza Petrolera Actif 131 / 131 40% 4 30.12.2027 -
Estêvão Millwall Actif 149 / 156 40% 8 29.12.2027 -
Dmitry Pestryakov Dinamo Moscow Actif 110 / 118 40% 5 29.12.2027 -
Daniel Banjaqui Benfica Actif 122 / 134 40% 1 29.12.2027 -
Mateus Mané Manchester United Actif 142 / 143 40% 6 27.12.2027 -
Josh King Chelsea Actif 151 / 147 40% 4 27.12.2027 -
Franco Minerva Platense Actif 113 / 120 40% 9 26.12.2027 -
Luca Williams-Barnett Tranmere Rovers Actif 117 / 132 40% 3 26.12.2027 -
Ronan Kpakio Cardiff City Actif 120 / 132 40% 4 25.12.2027 -
Ryan McAidoo Gillingham Actif 126 / 129 40% 6 25.12.2027 -
Bahia Criciuma Actif 113 / 120 40% 4 25.12.2027 -
Caleb Yirenkyi Coventry City Actif 140 / 150 40% 15 24.12.2027 -
Álex Marchal Real Sociedad Actif 118 / 121 40% 4 24.12.2027 -
Jay Robinson Southampton Actif 133 / 134 40% 4 23.12.2027 Observer
Jayden Danns Wigan Athletic Actif 134 / 142 40% 8 22.12.2027 -
Kerim Alajbegović Modena Actif 137 / 132 40% 2 21.12.2027 -
Archie Gray Derby County Actif 147 / 158 40% 10 20.12.2027 -
Jake Evans Colchester United Actif 115 / 125 40% 3 20.12.2027 -
Trey Nyoni Rotherham United Actif 130 / 146 40% 3 18.12.2027 -
Aarón Ochoa Málaga Actif 122 / 127 40% 2 18.12.2027 -
Tomás Aranda Boca Juniors Actif 108 / 123 40% 11 13.12.2027 -
Gonçalo Moreira Benfica Actif 120 / 126 40% 3 11.12.2027 -
Jorrel Hato Chelsea Actif 159 / 152 40% 1 09.12.2027 -
Esquerdinha Shrewsbury Town Actif 118 / 126 40% 2 06.12.2027 -
Olívio Tomé Benfica Actif 114 / 119 40% 1 06.12.2027 -
Dani Díaz Real Sociedad Actif 119 / 129 40% 3 30.11.2027 -
Santiago López Independiente Actif 125 / 128 40% 8 27.11.2027 -
Nicolás Azambuja Cádiz Actif 121 / 128 40% 2 25.11.2027 -
Giovanni Cantizano Rosario Central Actif 116 / 120 40% 2 20.11.2027 -
Eli Junior Kroupi Bournemouth Actif 150 / 153 40% 2 18.11.2027 -
Shea Lacey Wolverhampton Actif 129 / 137 40% 2 12.11.2027 -
Jesús Rodríguez Como Actif 147 / 147 40% 10 09.11.2027 -
Tyrique George Everton Actif 124 / 127 40% 1 04.11.2027 -
Luighi Palmeiras Actif 109 / 114 40% 3 03.11.2027 -
Ethan Williams Peterborough United Actif 123 / 121 40% 4 30.10.2027 -
Babis Kostoulas Brighton Actif 137 / 145 40% 3 30.10.2027 -
Lisandro Piñero Vélez Actif 125 / 131 40% 3 28.10.2027 -
Celías Ingenthron Vélez Actif 119 / 127 40% 2 19.10.2027 -
Ben Gannon Doak Bournemouth Actif 154 / 157 40% 5 16.10.2027 -
Ibrahim Mbaye Newcastle United Actif 135 / 145 40% 4 16.10.2027 -
Jan Bürger Gillingham Actif 120 / 129 40% 3 15.10.2027 -
Abdoul Ouattara Burton Albion Actif 127 / 130 40% 2 14.10.2027 -
Jhon Renteria Sarmiento Actif 107 / 120 40% 5 13.10.2027 -
Romelle Donovan Brentford Actif 122 / 138 40% 5 10.10.2027 -
Brandon Powell Wigan Athletic Actif 113 / 118 40% 1 08.10.2027 -
Dilan Godoy Vélez Actif 113 / 118 40% 8 06.10.2027 -
Joel Medina Independiente Actif 114 / 124 40% 2 05.10.2027 -
Noah Streit CF Montreal Actif 108 / 125 40% 3 03.10.2027 -
Rio Ngumoha Stockport County Actif 137 / 144 40% 3 02.10.2027 -
Johan Manzambi Newcastle United Actif 147 / 155 40% 4 01.10.2027 -
Amaury Morales Pumas UNAM Actif 117 / 116 40% 1 27.09.2027 -
Othmane Maamma Watford Actif 133 / 132 40% 4 25.09.2027 -
Eliás Montiel Werder Bremen Actif 135 / 141 40% 1 22.09.2027 -
Kosta Nedeljković Aston Villa Actif 140 / 145 40% 1 20.09.2027 -
Alex Verón Vélez Actif 116 / 125 40% 2 19.09.2027 -
Diogo Guzmán Montevideo City Torque Actif 109 / 116 40% 4 18.09.2027 -
Jens Hjertø-Dahl Hull City Actif 134 / 133 40% 2 13.09.2027 -
Ibrahim Fullah Charlton Athletic Actif 116 / 132 40% 1 10.09.2027 -
Harrison Armstrong Everton Actif 137 / 135 40% 1 08.09.2027 -
Gabriel Moscardo Paris Saint-Germain Actif 128 / 135 40% 1 04.09.2027 -
Robinio Vaz AS Roma Actif 116 / 128 40% 1 25.08.2027 -
Valentino Acuña Newell's Old Boys Actif 111 / 121 40% 1 25.08.2027 -
Santiago Lencina River Plate Actif 121 / 126 40% 1 25.08.2027 -
Themba Dala Ajax Cape Town Actif 115 / 130 40% 1 21.08.2027 -
Jayden Addai Como Actif 144 / 136 40% 4 19.08.2027 -
Sascha Britschgi Padova Actif 126 / 128 40% 3 17.08.2027 -
Mfundo Vilakazi Kaizer Chiefs Actif 108 / 124 40% 3 16.08.2027 -
Agustín Medina Valencia Actif 116 / 131 40% 1 16.08.2027 -
Lior Kasa Hapoel Kiryat Shmona Actif 104 / 116 40% 1 11.08.2027 -
Dylan Gorosito Villarreal Actif 115 / 119 40% 1 10.08.2027 -
Darryl Bakola Padova Actif 107 / 120 40% 1 09.08.2027 -
Alphadjo Cissé Como Actif 129 / 139 40% 1 07.08.2027 -
Tyler Dibling Chelsea Actif 142 / 143 40% 2 04.08.2027 -
Tiago Freitas Benfica Actif 117 / 122 40% 2 02.08.2027 -
Matheus Gonçalves Al-Ahli Actif 132 / 139 40% 2 26.07.2027 -
Róbert Boženík Newcastle United Actif 135 / 130 40% 2 12.07.2027 -
Gabriel Martinelli Brighton Actif 163 / 163 40% 3 12.07.2027 -
Matvey Kislyak CSKA Moscow Actif 146 / 142 67% 6 10.07.2027 Approuver
Davide Bartesaghi AC Milan Actif 137 / 135 40% 1 09.07.2027 -
Tom Cannon Sheffield United Actif 138 / 129 40% 3 06.07.2027 -
Lewis Morgan SuperSport United Actif 140 / 127 40% 1 06.07.2027 -
Gonçalo Oliveira Benfica Actif 109 / 121 40% 2 21.06.2027 -
Christ Inao Oulaï Fiorentina Actif 134 / 142 67% 5 15.06.2027 Approuver
Stanislav Agkatsev Sunderland Négociation 132 / 133 66% 1 01.06.2027 Approuver
Gabri Veiga Feyenoord Perdu 147 / 149 69% 1 01.06.2027 -
Franco Israel Torino Actif 134 / 133 40% 1 31.05.2027 -
Tyreece Campbell Charlton Athletic Actif 115 / 117 40% 5 29.05.2027 -
Aune Heggebø West Bromwich Albion Actif 131 / 124 40% 6 27.05.2027 -
Will Lankshear Middlesbrough Actif 128 / 130 40% 4 27.05.2027 -
Harry Leonard Peterborough United Actif 108 / 111 40% 1 26.05.2027 -
Pablo Felipe West Ham United Actif 133 / 140 40% 2 25.05.2027 -
Robert Mizo Ashanti Gold Actif 108 / 106 40% 1 25.05.2027 -
Franz-Ethan Meichtry Genoa Actif 122 / 128 40% 2 23.05.2027 -
Dom Ballard Leyton Orient Actif 125 / 122 40% 2 21.05.2027 -
Evidence Makgopa Orlando Pirates Actif 124 / 119 40% 3 19.05.2027 -
Jayden Wareham Barnet Actif 103 / 99 40% 1 18.05.2027 -
Sam Bell Bristol City Actif 116 / 122 40% 1 18.05.2027 -
Leo Castledine Middlesbrough Actif 125 / 134 40% 4 17.05.2027 -
Mees Rijks Bristol Rovers Actif 107 / 107 40% 6 17.05.2027 -
Luis Vázquez Birmingham Actif 124 / 126 40% 2 17.05.2027 -
Dango Ouattara Brentford Actif 152 / 150 40% 3 13.05.2027 -
Lee Bonis Chesterfield Actif 105 / 103 40% 1 13.05.2027 -
Ilyas Ansah Hull City Actif 130 / 135 40% 3 12.05.2027 -
Assane Diao Lazio Actif 146 / 149 40% 4 12.05.2027 -
Zeki Amdouni Burnley Actif 140 / 137 40% 1 12.05.2027 -
Samuel Lucero Defensa y Justicia Actif 115 / 120 40% 1 12.05.2027 -
Ernie Weaver AFC Wimbledon Actif 110 / 121 40% 1 09.05.2027 -
Georginio Rutter Brighton Actif 147 / 143 40% 3 07.05.2027 -
Mandla Mahlangu Ajax Cape Town Actif 102 / 99 40% 4 07.05.2027 -
Daniel Kelly Oxford United Actif 106 / 124 40% 1 07.05.2027 -
Mohammed Yahaya Great Olympics Actif 77 / 92 40% 3 05.05.2027 -
Mathias Jørgensen Blackburn Rovers Actif 125 / 115 40% 1 04.05.2027 -
Bongani Mothiba SuperSport United Actif 77 / 81 40% 2 03.05.2027 -
Kwame Opoku Asante Kotoko Actif 92 / 97 40% 3 30.04.2027 -
Nicolas Jackson Aston Villa Actif 148 / 143 40% 4 29.04.2027 -
Kelvin Obeng Medeama Actif 79 / 83 40% 2 29.04.2027 -
Mateo Pellegrino Fiorentina Actif 142 / 142 40% 5 28.04.2027 -
Lorent Tolaj Plymouth Argyle Actif 125 / 115 40% 3 28.04.2027 -
Iwan Morgan Grimsby Town Actif 115 / 116 40% 1 27.04.2027 -
Tommy Conway Middlesbrough Actif 132 / 129 40% 2 26.04.2027 -
Joe Gelhardt Hull City Actif 133 / 130 40% 1 26.04.2027 -
Gonçalo Ramos AC Milan Actif 157 / 156 40% 2 23.04.2027 -
Rhian Brewster Oxford United Actif 121 / 124 40% 3 21.04.2027 -
Tyrese Campbell Sheffield United Actif 124 / 124 40% 1 20.04.2027 -
Nicolò Zaniolo Udinese Actif 140 / 138 40% 1 20.04.2027 -
Wilson Isidor Sunderland Actif 142 / 133 40% 1 19.04.2027 -
Quinten Timber Crystal Palace Actif 157 / 152 40% 4 12.04.2027 -
Malick Thiaw West Ham United Actif 147 / 153 40% 3 12.04.2027 -
Nuno Tavares Lazio Actif 146 / 148 40% 4 12.04.2027 -
Bojan Radulović Huddersfield Town Actif 120 / 118 40% 1 10.04.2027 -
Hector Ramirez Newcastle United Actif 155 / 148 40% 4 07.04.2027 -
Kenneth Taylor Lazio Actif 143 / 148 40% 2 07.04.2027 -
Iliman N'Diaye Everton Actif 154 / 163 40% 2 07.04.2027 Plus d'infos
Juanlu Bournemouth Actif 153 / 154 40% 1 07.04.2027 -
Andrea Pinamonti Lazio Actif 144 / 135 40% 1 07.04.2027 -
Ferdi Kadıoğlu Brighton Actif 147 / 148 40% 2 05.04.2027 -
Ryan Sessegnon Fulham Actif 144 / 147 40% 1 05.04.2027 -
Mats Wieffer Brighton Actif 147 / 144 40% 1 05.04.2027 -
Yehor Yarmoliuk Brentford Actif 146 / 150 40% 2 04.04.2027 -
Morgan Whittaker Middlesbrough Actif 131 / 128 40% 1 01.04.2027 -
Nico González Newcastle United Actif 166 / 161 40% 4 31.03.2027 -
Jakub Kiwior Everton Actif 164 / 158 40% 2 31.03.2027 -
Giacomo Raspadori Atalanta Actif 152 / 143 40% 1 31.03.2027 -
Tino Livramento Newcastle United Actif 156 / 154 40% 4 29.03.2027 -
Sayed Abu Farchi Maccabi Tel Aviv Actif 125 / 124 40% 1 28.03.2027 -
Cyriaque Irié VfL Wolfsburg Actif 117 / 127 40% 1 28.03.2027 -
Ian Maatsen Aston Villa Actif 157 / 152 40% 3 27.03.2027 -
Alex Scott Bournemouth Actif 148 / 147 40% 2 27.03.2027 -
Jack Hinshelwood Brighton Actif 147 / 148 40% 1 26.03.2027 -
Etiosa Ighodaro Kaizer Chiefs Actif 115 / 113 40% 1 24.03.2027 -
Yousef Salech Cardiff City Actif 131 / 123 40% 1 24.03.2027 -
Alessandro Buongiorno Sassuolo Actif 160 / 152 40% 4 23.03.2027 -
Rocco Vata Watford Actif 120 / 119 40% 1 23.03.2027 -
Matías Gómez Granada Actif 113 / 125 40% 1 23.03.2027 -
Maxence Lacroix Everton Actif 152 / 148 40% 1 22.03.2027 -
Yaw Mensah Hasaacas Actif 91 / 89 40% 1 16.03.2027 -
Nathan Collins Brentford Actif 140 / 146 40% 2 15.03.2027 -
Nicolò Rovella Lazio Actif 156 / 146 40% 4 14.03.2027 -
Sepp van den Berg Brentford Actif 140 / 143 40% 2 14.03.2027 -
Curtis Jones Inter Actif 161 / 155 40% 2 13.03.2027 -
Calvin Bassey Fulham Actif 147 / 146 40% 1 13.03.2027 -
Michael Kayode Brentford Actif 144 / 152 40% 5 12.03.2027 -
Oumar Solet Udinese Actif 150 / 143 40% 3 11.03.2027 -
Adrien Truffert Bournemouth Actif 143 / 155 40% 1 10.03.2027 -
Alessandro Bastoni Inter Actif 167 / 161 40% 3 07.03.2027 -
Wesley AS Roma Actif 149 / 154 40% 1 05.03.2027 -
Diogo Dalot Manchester United Actif 152 / 149 40% 1 01.03.2027 -
Sandro Tonali Tottenham Actif 166 / 173 40% 2 26.02.2027 -
Micky van de Ven Tottenham Actif 151 / 162 40% 2 19.02.2027 -
Sven Botman Newcastle United Actif 153 / 153 40% 1 19.02.2027 -
James Garner Everton Actif 152 / 154 40% 1 12.02.2027 -
Joško Gvardiol Napoli Actif 160 / 163 40% 1 11.02.2027 -
Jan Paul van Hecke Tottenham Actif 152 / 160 40% 1 11.02.2027 -
Amadou Onana Aston Villa Actif 157 / 158 40% 1 08.02.2027 -
Tyler Adams Bournemouth Actif 158 / 156 40% 2 06.02.2027 -
Matteo Gabbia AC Milan Actif 151 / 150 40% 1 06.02.2027 -
Trevoh Chalobah Como Actif 154 / 155 40% 1 04.02.2027 -
Conor Gallagher Tottenham Actif 153 / 156 40% 1 01.02.2027 -
Stanley Mills Oxford United Actif 115 / 121 76% 1 31.08.2026 Approuver